Time;durP1;ratioP1;P1;durP2;ratioP2;P2;SDS_P1;SDS_P2;PMS_P1;PMS_P2;Temp;Humidity;BMP_temperature;BMP_pressure;BME280_temperature;BME280_humidity;BME280_pressure;Samples;Min_cycle;Max_cycle;Signal;HPM_P1;HPM_P2
2022/11/30 00:00:09;;;;;;;18.33;15.40;;;7.50;1.00;;;;;;5097584;27;20463;-80
2022/11/30 00:02:37;;;;;;;20.17;17.10;;;7.50;1.00;;;;;;5100326;28;20473;-81
2022/11/30 00:05:06;;;;;;;21.57;16.97;;;7.50;1.00;;;;;;5099982;27;20464;-82
2022/11/30 00:07:34;;;;;;;20.63;18.53;;;7.40;1.00;;;;;;5103980;28;20470;-81
2022/11/30 00:10:05;;;;;;;21.23;18.93;;;7.40;1.00;;;;;;5099161;28;20451;-82
2022/11/30 00:12:33;;;;;;;18.33;16.27;;;7.50;1.00;;;;;;5103676;28;20465;-81
2022/11/30 00:15:01;;;;;;;19.87;15.73;;;7.50;1.00;;;;;;5096892;28;20439;-82
2022/11/30 00:17:30;;;;;;;23.77;17.57;;;7.50;1.00;;;;;;5104891;27;20582;-81
2022/11/30 00:19:58;;;;;;;19.07;16.47;;;7.50;1.00;;;;;;5104282;27;20439;-83
2022/11/30 00:22:26;;;;;;;27.10;18.33;;;7.50;1.00;;;;;;5105361;27;20462;-82
2022/11/30 00:24:54;;;;;;;21.37;17.47;;;7.50;1.00;;;;;;5102425;27;21292;-82
2022/11/30 00:27:23;;;;;;;21.40;18.33;;;7.50;1.00;;;;;;5104140;27;20567;-81
2022/11/30 00:29:52;;;;;;;20.90;17.77;;;7.50;1.00;;;;;;5100857;28;20466;-82
2022/11/30 00:32:20;;;;;;;22.07;16.93;;;7.50;1.00;;;;;;5094972;27;20459;-82
2022/11/30 00:34:48;;;;;;;22.10;17.43;;;7.40;1.00;;;;;;5110478;27;20449;-83
2022/11/30 00:37:16;;;;;;;19.87;15.93;;;7.50;1.00;;;;;;5111940;27;20483;-83
2022/11/30 00:39:44;;;;;;;20.03;16.20;;;7.50;1.00;;;;;;5102140;28;20517;-81
2022/11/30 00:42:13;;;;;;;23.00;16.80;;;7.50;1.00;;;;;;5103228;27;20533;-83
2022/11/30 00:44:42;;;;;;;20.93;16.70;;;7.50;1.00;;;;;;5105614;27;20481;-82
2022/11/30 00:47:11;;;;;;;19.87;16.70;;;7.50;1.00;;;;;;5099146;27;20558;-82
2022/11/30 00:49:39;;;;;;;25.70;17.07;;;7.40;1.00;;;;;;5109277;27;20451;-82
2022/11/30 00:52:07;;;;;;;21.47;15.83;;;7.50;1.00;;;;;;5107201;28;20516;-81
2022/11/30 00:54:35;;;;;;;22.00;15.93;;;7.50;1.00;;;;;;5109731;27;20450;-82
2022/11/30 00:57:03;;;;;;;24.17;17.60;;;7.40;1.00;;;;;;5106185;28;21012;-82
2022/11/30 00:59:32;;;;;;;24.40;17.03;;;7.50;1.00;;;;;;5107517;28;20871;-81
2022/11/30 01:02:01;;;;;;;21.20;17.00;;;7.50;1.00;;;;;;5108523;28;20460;-82
2022/11/30 01:04:29;;;;;;;21.23;15.27;;;7.50;1.00;;;;;;5103971;28;20570;-82
2022/11/30 01:06:57;;;;;;;17.63;15.20;;;7.40;1.00;;;;;;5110189;27;20988;-82
2022/11/30 01:09:25;;;;;;;19.33;16.00;;;7.40;1.00;;;;;;5104448;28;20445;-81
2022/11/30 01:11:53;;;;;;;21.73;18.30;;;7.40;1.00;;;;;;5108242;27;20503;-83
2022/11/30 01:14:21;;;;;;;21.13;16.57;;;7.50;1.00;;;;;;5103747;28;20446;-83
2022/11/30 01:16:50;;;;;;;21.83;16.07;;;7.40;1.00;;;;;;5103077;28;20551;-82
2022/11/30 01:19:24;;;;;;;19.67;15.70;;;7.50;1.00;;;;;;5109586;28;20800;-83
2022/11/30 01:21:52;;;;;;;16.90;15.13;;;7.50;1.00;;;;;;5098712;28;20547;-82
2022/11/30 01:24:21;;;;;;;21.57;16.67;;;7.40;1.00;;;;;;5104259;28;20883;-82
2022/11/30 01:26:49;;;;;;;19.67;17.27;;;7.40;1.00;;;;;;5107219;27;20465;-81
2022/11/30 01:29:17;;;;;;;20.10;15.50;;;7.40;1.00;;;;;;5104844;28;20444;-82
2022/11/30 01:31:45;;;;;;;22.67;17.07;;;7.40;1.00;;;;;;5107348;27;20446;-81
2022/11/30 01:34:13;;;;;;;21.37;16.27;;;7.30;1.00;;;;;;5097663;28;20445;-81
2022/11/30 01:36:43;;;;;;;19.10;15.30;;;7.40;1.00;;;;;;5105688;27;20522;-82
2022/11/30 01:39:11;;;;;;;19.90;16.60;;;7.40;1.00;;;;;;5098082;28;20476;-82
2022/11/30 01:41:40;;;;;;;20.23;16.90;;;7.40;1.00;;;;;;5101686;27;20539;-82
2022/11/30 01:44:45;;;;;;;18.00;15.97;;;7.40;1.00;;;;;;5094507;28;20619;-81
2022/11/30 01:47:13;;;;;;;18.43;16.33;;;7.40;1.00;;;;;;5101524;27;20530;-81
2022/11/30 01:49:46;;;;;;;18.93;16.00;;;7.40;1.00;;;;;;5097661;27;20453;-81
2022/11/30 01:52:20;;;;;;;22.23;16.20;;;7.40;1.00;;;;;;5093997;27;20451;-82
2022/11/30 01:54:51;;;;;;;21.50;17.00;;;7.40;1.00;;;;;;5101573;28;20448;-81
2022/11/30 01:57:25;;;;;;;19.40;16.03;;;7.30;1.00;;;;;;5103708;27;20486;-82
2022/11/30 01:59:56;;;;;;;24.93;17.87;;;7.30;1.00;;;;;;5093686;28;20463;-82
2022/11/30 02:02:32;;;;;;;19.23;15.70;;;7.30;1.00;;;;;;5096336;28;20454;-83
2022/11/30 02:05:01;;;;;;;22.13;17.50;;;7.40;1.00;;;;;;5096352;28;20486;-84
2022/11/30 02:07:30;;;;;;;21.27;16.70;;;7.30;1.00;;;;;;5100057;27;20519;-83
2022/11/30 02:09:59;;;;;;;21.50;16.80;;;7.40;1.00;;;;;;5097474;28;20442;-82
2022/11/30 02:12:37;;;;;;;25.20;18.73;;;7.40;1.00;;;;;;5094871;28;20453;-83
2022/11/30 02:15:11;;;;;;;25.23;18.17;;;7.40;1.00;;;;;;5103019;27;20457;-81
2022/11/30 02:17:50;;;;;;;23.03;17.20;;;7.40;1.00;;;;;;5095802;27;20479;-81
2022/11/30 02:20:46;;;;;;;26.53;18.90;;;7.30;1.00;;;;;;5091390;28;20444;-81
2022/11/30 02:23:40;;;;;;;24.33;19.90;;;7.30;1.00;;;;;;5102413;27;20529;-81
2022/11/30 02:26:25;;;;;;;25.13;18.40;;;7.30;1.00;;;;;;5102559;27;20484;-82
2022/11/30 02:29:04;;;;;;;25.50;19.10;;;7.30;1.00;;;;;;5097082;28;20460;-84
2022/11/30 02:31:38;;;;;;;22.63;17.40;;;7.20;1.00;;;;;;5097719;28;20548;-83
2022/11/30 02:34:08;;;;;;;24.97;18.13;;;7.20;1.00;;;;;;5102074;27;20825;-83
2022/11/30 02:36:37;;;;;;;24.67;17.60;;;7.30;1.00;;;;;;5102516;27;20538;-83
2022/11/30 02:39:06;;;;;;;25.40;18.57;;;7.30;1.00;;;;;;5097341;27;20516;-83
2022/11/30 02:41:38;;;;;;;20.53;16.63;;;7.30;1.00;;;;;;5100947;27;20462;-82
2022/11/30 02:44:09;;;;;;;25.93;19.00;;;7.30;1.00;;;;;;5104589;27;20460;-79
2022/11/30 02:46:51;;;;;;;25.60;19.47;;;7.20;1.00;;;;;;5097503;27;20468;-81
2022/11/30 02:49:29;;;;;;;22.53;18.00;;;7.30;1.00;;;;;;5098865;27;20457;-82
2022/11/30 02:51:59;;;;;;;25.50;18.37;;;7.30;1.00;;;;;;5094644;27;20455;-82
2022/11/30 02:54:27;;;;;;;25.27;19.20;;;7.30;1.00;;;;;;5100419;27;20441;-82
2022/11/30 02:56:55;;;;;;;21.20;17.97;;;7.20;1.00;;;;;;5099486;28;20483;-82
2022/11/30 02:59:24;;;;;;;23.80;17.27;;;7.20;1.00;;;;;;5097159;27;20443;-82
2022/11/30 03:01:53;;;;;;;25.00;18.77;;;7.20;1.00;;;;;;5094287;27;20453;-81
2022/11/30 03:04:21;;;;;;;21.23;17.07;;;7.20;1.00;;;;;;5100041;27;20529;-81
2022/11/30 03:06:49;;;;;;;24.60;19.27;;;7.20;1.00;;;;;;5096227;28;20487;-82
2022/11/30 03:09:17;;;;;;;19.83;16.63;;;7.20;1.00;;;;;;5099274;28;20447;-81
2022/11/30 03:11:46;;;;;;;22.03;16.80;;;7.10;1.00;;;;;;5092635;28;20449;-81
2022/11/30 03:14:14;;;;;;;20.87;17.80;;;7.30;1.00;;;;;;5096026;28;20505;-84
2022/11/30 03:16:44;;;;;;;20.30;17.53;;;7.30;1.00;;;;;;5099009;28;20546;-84
2022/11/30 03:19:13;;;;;;;20.90;17.83;;;7.30;1.00;;;;;;5099367;28;20523;-83
2022/11/30 03:21:41;;;;;;;22.43;17.50;;;7.30;1.00;;;;;;5100856;27;20504;-83
2022/11/30 03:24:09;;;;;;;20.30;17.37;;;7.30;1.00;;;;;;5099745;28;20952;-83
2022/11/30 03:26:37;;;;;;;22.37;16.93;;;7.20;1.00;;;;;;5091364;28;21086;-83
2022/11/30 03:29:05;;;;;;;22.97;18.17;;;7.20;1.00;;;;;;5090620;28;20453;-83
2022/11/30 03:31:33;;;;;;;21.53;16.60;;;7.20;1.00;;;;;;5093514;28;20542;-83
2022/11/30 03:34:03;;;;;;;18.90;16.27;;;7.10;1.00;;;;;;5099777;28;20466;-83
2022/11/30 03:36:31;;;;;;;19.30;16.70;;;7.10;1.00;;;;;;5091048;28;20500;-83
2022/11/30 03:39:00;;;;;;;20.53;15.50;;;7.10;1.00;;;;;;5101582;28;20485;-82
2022/11/30 03:41:28;;;;;;;22.80;17.93;;;7.20;1.00;;;;;;5096502;28;20489;-83
2022/11/30 03:43:56;;;;;;;19.57;16.40;;;7.20;1.00;;;;;;5103377;28;20454;-82
2022/11/30 03:46:25;;;;;;;19.87;17.30;;;7.20;1.00;;;;;;5099357;28;20498;-83
2022/11/30 03:48:54;;;;;;;17.90;15.00;;;7.20;1.00;;;;;;5103686;28;20491;-83
2022/11/30 03:51:23;;;;;;;18.40;15.87;;;7.20;1.00;;;;;;5096949;28;20488;-82
2022/11/30 03:53:52;;;;;;;19.33;16.83;;;7.20;1.00;;;;;;5090941;28;20444;-83
2022/11/30 03:56:20;;;;;;;17.23;15.40;;;7.20;1.00;;;;;;5098179;28;20956;-83
2022/11/30 03:58:48;;;;;;;19.33;16.30;;;7.20;1.00;;;;;;5102980;28;20473;-81
2022/11/30 04:01:21;;;;;;;20.77;16.20;;;7.20;1.00;;;;;;5094723;28;20446;-82
2022/11/30 04:03:50;;;;;;;26.30;17.57;;;7.20;1.00;;;;;;5097371;28;20443;-82
2022/11/30 04:06:19;;;;;;;19.30;15.90;;;7.20;1.00;;;;;;5096058;28;20479;-81
2022/11/30 04:08:48;;;;;;;18.70;15.73;;;7.20;1.00;;;;;;5095323;28;20552;-83
2022/11/30 04:11:17;;;;;;;17.10;14.93;;;7.10;1.00;;;;;;5103544;28;20452;-83
2022/11/30 04:13:45;;;;;;;20.23;17.03;;;7.20;1.00;;;;;;5097411;28;20472;-82
2022/11/30 04:16:13;;;;;;;19.50;15.43;;;7.20;1.00;;;;;;5094783;28;20442;-83
2022/11/30 04:18:42;;;;;;;21.40;16.10;;;7.20;1.00;;;;;;5096414;28;20550;-82
2022/11/30 04:21:11;;;;;;;19.10;15.57;;;7.20;1.00;;;;;;5093994;28;20451;-82
2022/11/30 04:23:40;;;;;;;16.97;14.93;;;7.30;1.00;;;;;;5096143;28;20511;-81
2022/11/30 04:26:13;;;;;;;18.33;13.83;;;7.20;1.00;;;;;;5093144;28;20477;-83
2022/11/30 04:28:42;;;;;;;16.27;14.03;;;7.20;1.00;;;;;;5096520;28;20451;-82
2022/11/30 04:31:10;;;;;;;14.37;12.80;;;7.20;1.00;;;;;;5099466;28;20533;-83
2022/11/30 04:33:39;;;;;;;16.70;14.93;;;7.20;1.00;;;;;;5091016;28;20449;-82
2022/11/30 04:36:15;;;;;;;16.10;13.70;;;7.20;1.00;;;;;;5093587;28;20501;-82
2022/11/30 04:38:44;;;;;;;18.10;14.80;;;7.20;1.00;;;;;;5094054;28;20963;-82
2022/11/30 04:41:13;;;;;;;15.07;13.23;;;7.20;1.00;;;;;;5096927;28;20535;-83
2022/11/30 04:43:42;;;;;;;18.93;13.87;;;7.20;1.00;;;;;;5099474;27;20463;-83
2022/11/30 04:46:10;;;;;;;16.13;14.57;;;7.10;1.00;;;;;;5104584;28;20471;-81
2022/11/30 04:48:38;;;;;;;15.87;13.40;;;7.10;1.00;;;;;;5108610;27;20974;-81
2022/11/30 04:51:08;;;;;;;14.93;13.43;;;7.10;1.00;;;;;;5104444;28;20455;-82
2022/11/30 04:53:37;;;;;;;14.17;12.87;;;7.10;1.20;;;;;;5099518;27;20462;-81
2022/11/30 04:56:06;;;;;;;15.00;13.50;;;7.20;1.00;;;;;;5096761;28;20860;-82
2022/11/30 04:58:37;;;;;;;14.07;12.63;;;7.20;1.00;;;;;;5097006;27;20517;-83
2022/11/30 05:01:06;;;;;;;15.40;13.83;;;7.20;1.00;;;;;;5095267;28;20753;-82
2022/11/30 05:03:34;;;;;;;14.93;13.50;;;7.20;1.00;;;;;;5100217;27;20440;-82
2022/11/30 05:06:02;;;;;;;13.77;12.50;;;7.20;1.00;;;;;;5099303;28;20485;-81
2022/11/30 05:08:30;;;;;;;13.30;12.10;;;7.10;1.00;;;;;;5098359;27;20478;-81
2022/11/30 05:11:01;;;;;;;14.67;13.17;;;7.10;1.00;;;;;;5098266;27;20456;-80
2022/11/30 05:13:30;;;;;;;14.70;13.20;;;7.20;1.00;;;;;;5100773;27;20447;-80
2022/11/30 05:15:59;;;;;;;12.80;11.57;;;7.20;1.00;;;;;;5100961;27;20992;-81
2022/11/30 05:18:28;;;;;;;13.83;12.33;;;7.10;1.00;;;;;;5091452;28;20569;-82
2022/11/30 05:20:56;;;;;;;13.00;11.80;;;7.10;3.00;;;;;;5096413;27;20461;-81
2022/11/30 05:23:24;;;;;;;12.37;11.27;;;7.20;1.00;;;;;;5098580;27;20454;-81
2022/11/30 05:25:52;;;;;;;13.93;12.60;;;7.20;1.00;;;;;;5096954;28;20454;-81
2022/11/30 05:28:21;;;;;;;10.40;9.60;;;7.20;1.00;;;;;;5096830;27;20835;-82
2022/11/30 05:30:49;;;;;;;12.03;10.93;;;7.10;1.00;;;;;;5094180;28;21112;-81
2022/11/30 05:33:19;;;;;;;11.73;10.63;;;7.20;1.00;;;;;;5097288;27;20450;-81
2022/11/30 05:35:47;;;;;;;11.40;10.40;;;7.20;1.00;;;;;;5102297;28;21065;-80
2022/11/30 05:38:15;;;;;;;11.10;10.10;;;7.20;1.00;;;;;;5098742;27;20475;-82
2022/11/30 05:40:46;;;;;;;10.73;10.00;;;7.20;1.00;;;;;;5096278;27;20442;-80
2022/11/30 05:43:14;;;;;;;12.53;11.33;;;7.10;1.00;;;;;;5095400;28;20455;-81
2022/11/30 05:45:43;;;;;;;12.17;10.97;;;7.20;1.00;;;;;;5096287;28;20511;-81
2022/11/30 05:48:11;;;;;;;12.30;11.20;;;7.20;1.00;;;;;;5097595;28;20471;-81
2022/11/30 05:50:40;;;;;;;14.37;12.97;;;7.20;1.00;;;;;;5104393;27;20534;-81
2022/11/30 05:53:09;;;;;;;12.77;11.43;;;7.20;1.00;;;;;;5096519;27;20539;-80
2022/11/30 05:55:37;;;;;;;13.13;11.93;;;7.30;1.00;;;;;;5096058;27;21028;-81
2022/11/30 05:58:05;;;;;;;12.50;11.50;;;7.20;1.00;;;;;;5097787;28;20535;-79
2022/11/30 06:00:33;;;;;;;13.90;12.60;;;7.20;1.00;;;;;;5101146;27;20454;-81
2022/11/30 06:03:01;;;;;;;12.27;11.27;;;7.20;1.00;;;;;;5095710;27;20457;-79
2022/11/30 06:05:30;;;;;;;12.93;11.73;;;7.20;1.00;;;;;;5096341;27;20451;-80
2022/11/30 06:08:00;;;;;;;16.40;12.47;;;7.20;1.00;;;;;;5099238;27;20832;-82
2022/11/30 06:10:30;;;;;;;13.00;11.70;;;7.30;1.00;;;;;;5101149;27;20475;-80
2022/11/30 06:12:58;;;;;;;13.40;12.13;;;7.20;1.00;;;;;;5097064;28;20520;-80
2022/11/30 06:15:26;;;;;;;12.33;11.23;;;7.20;1.00;;;;;;5102865;27;20688;-82
2022/11/30 06:17:56;;;;;;;15.73;14.23;;;7.20;1.00;;;;;;5099319;27;20494;-82
2022/11/30 06:20:24;;;;;;;18.97;17.00;;;7.20;1.00;;;;;;5096830;27;20462;-81
2022/11/30 06:22:52;;;;;;;14.07;12.90;;;7.20;1.00;;;;;;5097558;28;20444;-81
2022/11/30 06:25:21;;;;;;;14.70;13.20;;;7.30;1.00;;;;;;5090116;27;20619;-82
2022/11/30 06:27:50;;;;;;;16.60;15.07;;;7.30;1.00;;;;;;5089291;28;20490;-81
2022/11/30 06:30:18;;;;;;;16.03;14.43;;;7.20;1.00;;;;;;5096434;27;20467;-82
2022/11/30 06:32:47;;;;;;;16.97;13.83;;;7.20;1.00;;;;;;5093724;27;20474;-82
2022/11/30 06:35:16;;;;;;;14.73;13.40;;;7.30;1.00;;;;;;5098262;27;20555;-81
2022/11/30 06:37:44;;;;;;;14.43;13.13;;;7.30;1.00;;;;;;5094023;28;20476;-81
2022/11/30 06:40:13;;;;;;;16.67;14.10;;;7.20;1.00;;;;;;5096526;28;20446;-81
2022/11/30 06:42:43;;;;;;;16.27;14.53;;;7.20;1.00;;;;;;5100565;27;20540;-80
2022/11/30 06:45:11;;;;;;;15.50;14.00;;;7.20;1.00;;;;;;5092147;28;20473;-82
2022/11/30 06:47:39;;;;;;;16.20;14.80;;;7.20;1.00;;;;;;5097437;27;20514;-82
2022/11/30 06:50:08;;;;;;;15.87;14.27;;;7.20;4.80;;;;;;5096508;28;20506;-81
2022/11/30 06:52:36;;;;;;;16.27;14.57;;;7.20;1.00;;;;;;5092561;27;20455;-82
2022/11/30 06:55:05;;;;;;;16.23;14.77;;;7.20;1.00;;;;;;5098650;27;20461;-82
2022/11/30 06:57:34;;;;;;;16.30;14.50;;;7.20;4.50;;;;;;5104237;27;20467;-82
2022/11/30 07:00:04;;;;;;;17.33;14.80;;;7.30;4.70;;;;;;5090584;28;20459;-83
2022/11/30 07:02:33;;;;;;;16.97;14.83;;;7.20;1.00;;;;;;5100556;27;20453;-82
2022/11/30 07:05:01;;;;;;;16.33;14.40;;;7.20;1.00;;;;;;5094671;28;20463;-82
2022/11/30 07:07:30;;;;;;;18.33;14.80;;;7.20;1.00;;;;;;5094297;28;20484;-81
2022/11/30 07:09:59;;;;;;;15.97;14.37;;;7.20;4.50;;;;;;5095140;27;20451;-82
2022/11/30 07:12:27;;;;;;;16.13;14.47;;;7.20;8.90;;;;;;5101088;28;20453;-82
2022/11/30 07:14:55;;;;;;;17.00;15.23;;;7.20;7.80;;;;;;5093816;28;20486;-82
2022/11/30 07:17:25;;;;;;;17.70;14.53;;;7.20;10.10;;;;;;5096103;28;20477;-81
2022/11/30 07:19:53;;;;;;;15.13;13.60;;;7.20;5.30;;;;;;5097793;27;20540;-82
2022/11/30 07:22:21;;;;;;;15.97;14.27;;;7.30;1.00;;;;;;5098177;28;20487;-82
2022/11/30 07:27:35;;;;;;;17.00;15.20;;;7.30;1.00;;;;;;5097761;28;20525;-82
2022/11/30 07:30:04;;;;;;;16.20;14.50;;;7.30;1.00;;;;;;5097158;28;20453;-82
2022/11/30 07:32:33;;;;;;;17.37;15.40;;;7.20;1.00;;;;;;5087990;28;21590;-81
2022/11/30 07:35:02;;;;;;;17.80;15.03;;;7.30;1.00;;;;;;5094924;28;20451;-79
2022/11/30 07:37:30;;;;;;;16.53;14.70;;;7.30;1.00;;;;;;5098210;28;20879;-81
2022/11/30 07:39:58;;;;;;;18.17;15.80;;;7.40;1.00;;;;;;5097212;28;20462;-80
2022/11/30 07:42:26;;;;;;;21.23;16.40;;;7.30;1.00;;;;;;5096721;28;20518;-81
2022/11/30 07:44:54;;;;;;;17.77;15.43;;;7.40;1.00;;;;;;5100371;28;20515;-81
2022/11/30 07:47:26;;;;;;;16.63;14.90;;;7.40;1.00;;;;;;5103766;28;20570;-81
2022/11/30 07:49:56;;;;;;;18.10;16.00;;;7.40;1.00;;;;;;5093641;28;20446;-82
2022/11/30 07:52:24;;;;;;;20.50;16.27;;;7.40;1.00;;;;;;5100111;28;20461;-82
2022/11/30 07:54:52;;;;;;;17.63;15.83;;;7.40;1.00;;;;;;5095559;28;20461;-82
2022/11/30 07:57:20;;;;;;;20.17;17.60;;;7.40;1.00;;;;;;5097831;28;20470;-81
2022/11/30 07:59:48;;;;;;;17.13;14.93;;;7.40;1.00;;;;;;5092433;28;20460;-81
2022/11/30 08:02:17;;;;;;;19.30;17.27;;;7.40;1.00;;;;;;5096538;28;20454;-81
2022/11/30 08:04:45;;;;;;;20.73;17.63;;;7.40;1.00;;;;;;5097557;28;20462;-80
2022/11/30 08:07:16;;;;;;;19.40;15.63;;;7.40;1.00;;;;;;5099390;28;20470;-81
2022/11/30 08:09:45;;;;;;;20.57;16.30;;;7.40;1.00;;;;;;5089904;28;20516;-82
2022/11/30 08:12:13;;;;;;;19.73;16.80;;;7.30;1.00;;;;;;5105903;28;20950;-81
2022/11/30 08:14:41;;;;;;;18.77;16.87;;;7.30;1.00;;;;;;5090543;28;20760;-79
2022/11/30 08:17:29;;;;;;;18.87;16.30;;;7.40;1.00;;;;;;5098777;28;20467;-81
2022/11/30 08:19:57;;;;;;;16.90;15.03;;;7.20;1.00;;;;;;5095622;28;20455;-81
2022/11/30 08:22:27;;;;;;;19.53;16.70;;;7.40;1.00;;;;;;5098791;28;20456;-82
2022/11/30 08:24:55;;;;;;;17.63;15.27;;;7.30;1.00;;;;;;5104003;28;20453;-81
2022/11/30 08:27:24;;;;;;;18.10;16.17;;;7.40;1.00;;;;;;5100176;28;20468;-81
2022/11/30 08:29:52;;;;;;;21.77;16.87;;;7.30;1.00;;;;;;5103206;28;20454;-81
2022/11/30 08:32:20;;;;;;;18.60;15.13;;;7.20;1.00;;;;;;5101793;28;20949;-82
2022/11/30 08:34:48;;;;;;;21.03;15.90;;;7.30;1.00;;;;;;5102968;28;20521;-81
2022/11/30 08:37:17;;;;;;;22.20;16.53;;;7.30;1.00;;;;;;5095789;28;20554;-81
2022/11/30 08:39:46;;;;;;;17.80;15.97;;;7.30;1.00;;;;;;5095141;28;20513;-80
2022/11/30 08:42:14;;;;;;;22.93;16.50;;;7.30;1.00;;;;;;5096197;28;20472;-82
2022/11/30 08:44:42;;;;;;;21.17;18.00;;;7.30;1.00;;;;;;5097237;28;22076;-82
2022/11/30 08:47:11;;;;;;;18.47;16.13;;;7.30;1.00;;;;;;5097165;27;20528;-80
2022/11/30 08:49:39;;;;;;;20.93;17.50;;;7.40;1.00;;;;;;5111273;27;20484;-81
2022/11/30 08:52:07;;;;;;;19.30;17.20;;;7.40;1.00;;;;;;5103848;28;20457;-81
2022/11/30 08:54:47;;;;;;;23.23;17.00;;;7.40;1.00;;;;;;5106574;27;20526;-80
2022/11/30 08:57:16;;;;;;;23.03;18.20;;;7.40;1.00;;;;;;5100863;27;20501;-82
2022/11/30 08:59:45;;;;;;;18.60;15.57;;;7.40;1.00;;;;;;5107408;27;20452;-80
2022/11/30 09:02:16;;;;;;;17.60;15.70;;;7.50;1.00;;;;;;5103052;28;20445;-81
2022/11/30 09:04:47;;;;;;;21.30;16.50;;;7.50;1.00;;;;;;5106734;27;20439;-82
2022/11/30 09:07:17;;;;;;;19.50;17.50;;;7.70;1.00;;;;;;5107599;28;20518;-81
2022/11/30 09:09:46;;;;;;;19.97;16.10;;;7.60;1.00;;;;;;5103119;28;20540;-81
2022/11/30 09:12:15;;;;;;;18.00;16.10;;;7.70;1.00;;;;;;5099654;28;20813;-82
2022/11/30 09:14:44;;;;;;;18.40;16.40;;;7.70;1.00;;;;;;5095280;28;20456;-83
2022/11/30 09:17:13;;;;;;;20.30;16.40;;;7.60;1.00;;;;;;5101748;28;20527;-81
2022/11/30 09:19:42;;;;;;;17.30;14.73;;;7.60;1.00;;;;;;5098128;28;20479;-81
2022/11/30 09:22:10;;;;;;;19.63;16.83;;;7.70;1.00;;;;;;5098318;28;20635;-82
2022/11/30 09:24:38;;;;;;;20.60;16.13;;;7.70;1.00;;;;;;5099399;28;20452;-82
2022/11/30 09:27:08;;;;;;;20.30;16.00;;;7.80;1.00;;;;;;5099824;27;20479;-81
2022/11/30 09:29:36;;;;;;;17.50;15.70;;;7.70;1.00;;;;;;5100380;28;20976;-82
2022/11/30 09:32:05;;;;;;;16.40;14.63;;;7.70;1.00;;;;;;5089690;28;21000;-82
2022/11/30 09:34:33;;;;;;;16.00;14.30;;;7.70;1.00;;;;;;5097714;28;20451;-82
2022/11/30 09:37:02;;;;;;;16.70;14.50;;;7.80;99.90;;;;;;5090348;28;20542;-81
2022/11/30 09:39:30;;;;;;;17.33;14.83;;;7.70;1.00;;;;;;5102881;27;20460;-83
2022/11/30 09:42:32;;;;;;;18.77;14.93;;;7.70;1.00;;;;;;5102479;28;20454;-82
2022/11/30 09:45:06;;;;;;;17.73;15.27;;;7.70;1.00;;;;;;5098248;28;20467;-83
2022/11/30 09:48:00;;;;;;;18.90;15.90;;;7.70;1.00;;;;;;5098929;28;20488;-82
2022/11/30 09:50:33;;;;;;;16.60;14.30;;;7.80;1.00;;;;;;5098532;27;20516;-82
2022/11/30 09:53:05;;;;;;;15.87;14.00;;;7.70;1.00;;;;;;5093253;27;20491;-81
2022/11/30 09:55:38;;;;;;;16.53;14.30;;;7.70;99.90;;;;;;5099512;28;20463;-81
2022/11/30 09:58:11;;;;;;;16.43;14.10;;;7.80;99.90;;;;;;5095872;28;20481;-82
2022/11/30 10:00:40;;;;;;;16.67;14.83;;;7.90;99.90;;;;;;5104133;28;20463;-80
2022/11/30 10:03:08;;;;;;;15.37;13.77;;;7.90;1.00;;;;;;5099780;28;20465;-80
2022/11/30 10:05:45;;;;;;;16.63;14.93;;;7.90;1.00;;;;;;5092050;28;20544;-81
2022/11/30 10:08:33;;;;;;;18.00;16.13;;;7.90;1.00;;;;;;5100192;28;20511;-81
2022/11/30 10:11:20;;;;;;;17.00;15.30;;;8.10;1.00;;;;;;5101532;28;20474;-81
2022/11/30 10:14:02;;;;;;;22.77;15.70;;;8.00;1.00;;;;;;5099168;28;20460;-82
2022/11/30 10:16:39;;;;;;;18.33;14.93;;;8.00;1.00;;;;;;5101453;28;20538;-81
2022/11/30 10:19:17;;;;;;;16.93;15.23;;;8.10;1.00;;;;;;5116262;27;21462;-80
2022/11/30 10:21:58;;;;;;;16.43;14.03;;;8.10;1.00;;;;;;5099520;28;20474;-82
2022/11/30 10:24:40;;;;;;;15.90;14.30;;;8.00;1.00;;;;;;5099736;28;20460;-81
2022/11/30 10:27:17;;;;;;;16.50;15.00;;;8.00;1.00;;;;;;5098523;28;21007;-79
2022/11/30 10:29:46;;;;;;;17.13;14.87;;;8.00;1.00;;;;;;5099575;28;20510;-80
2022/11/30 10:32:20;;;;;;;16.73;15.10;;;8.00;1.00;;;;;;5099425;27;20456;-81
2022/11/30 10:34:52;;;;;;;15.73;13.67;;;8.10;1.00;;;;;;5090614;28;20457;-81
2022/11/30 10:37:27;;;;;;;16.77;14.70;;;8.00;1.00;;;;;;5095483;28;20480;-82
2022/11/30 10:40:01;;;;;;;15.53;13.93;;;8.00;1.00;;;;;;5097305;28;20462;-81
2022/11/30 10:42:34;;;;;;;14.57;13.07;;;8.00;1.00;;;;;;5101941;28;20460;-82
2022/11/30 10:45:09;;;;;;;14.73;13.30;;;8.00;1.00;;;;;;5091071;28;20856;-81
2022/11/30 10:47:43;;;;;;;14.47;13.07;;;8.00;1.00;;;;;;5096613;28;20532;-80
2022/11/30 10:50:16;;;;;;;15.03;13.50;;;8.10;1.00;;;;;;5091529;28;20487;-81
2022/11/30 10:52:48;;;;;;;15.33;13.87;;;8.10;1.00;;;;;;5101151;28;20522;-81
2022/11/30 10:55:21;;;;;;;16.10;13.30;;;8.10;1.00;;;;;;5099266;28;20458;-81
2022/11/30 10:57:55;;;;;;;17.00;14.03;;;8.20;1.00;;;;;;5097812;28;20476;-81
2022/11/30 11:00:25;;;;;;;15.50;13.00;;;8.20;1.00;;;;;;5103807;28;20487;-81
2022/11/30 11:02:53;;;;;;;16.73;14.93;;;8.20;1.00;;;;;;5091547;28;20522;-82
2022/11/30 11:05:24;;;;;;;16.97;13.60;;;8.20;1.00;;;;;;5102935;27;20463;-82
2022/11/30 11:07:55;;;;;;;14.73;13.13;;;8.20;1.00;;;;;;5101546;28;20476;-81
2022/11/30 11:10:34;;;;;;;14.90;13.40;;;8.30;1.00;;;;;;5099462;28;20460;-82
2022/11/30 11:13:03;;;;;;;14.57;13.20;;;8.20;1.00;;;;;;5098361;28;20951;-82
2022/11/30 11:15:34;;;;;;;15.40;13.43;;;8.20;1.00;;;;;;5100223;28;20453;-82
2022/11/30 11:18:24;;;;;;;14.60;13.27;;;8.10;1.00;;;;;;5094881;28;20474;-81
2022/11/30 11:21:02;;;;;;;15.17;13.67;;;8.10;1.00;;;;;;5095584;28;20493;-81
2022/11/30 11:23:36;;;;;;;13.93;12.63;;;8.10;99.90;;;;;;5095170;28;20457;-82
2022/11/30 11:26:07;;;;;;;15.40;13.80;;;8.10;99.90;;;;;;5108961;28;20521;-82
2022/11/30 11:28:36;;;;;;;16.97;13.70;;;8.10;1.00;;;;;;5098586;28;20494;-82
2022/11/30 11:31:19;;;;;;;15.07;13.57;;;8.10;99.90;;;;;;5094802;28;20487;-82
2022/11/30 11:33:52;;;;;;;17.00;14.10;;;8.20;99.90;;;;;;5101818;28;20443;-81
2022/11/30 11:36:27;;;;;;;15.90;14.20;;;8.10;99.90;;;;;;5101077;28;20479;-81
2022/11/30 11:38:55;;;;;;;20.40;15.90;;;8.10;1.00;;;;;;5101019;28;20452;-82
2022/11/30 11:41:27;;;;;;;15.23;13.63;;;8.20;1.00;;;;;;5100502;28;20472;-83
2022/11/30 11:44:01;;;;;;;19.60;14.67;;;8.10;1.00;;;;;;5090016;28;20474;-77
2022/11/30 11:46:31;;;;;;;15.60;13.70;;;8.00;99.90;;;;;;5092944;28;20443;-78
2022/11/30 11:49:02;;;;;;;15.37;13.77;;;8.00;1.00;;;;;;5100916;28;20446;-81
2022/11/30 11:51:33;;;;;;;15.80;14.07;;;8.00;1.00;;;;;;5100573;28;21082;-82
2022/11/30 11:54:07;;;;;;;15.10;13.50;;;8.00;1.00;;;;;;5106157;28;20441;-82
2022/11/30 11:56:37;;;;;;;15.33;13.83;;;8.00;1.00;;;;;;5094788;28;20491;-82
2022/11/30 11:59:13;;;;;;;14.13;12.83;;;8.10;1.00;;;;;;5106796;28;20463;-83
2022/11/30 12:01:50;;;;;;;14.23;12.83;;;8.10;99.90;;;;;;5102390;28;20466;-81
2022/11/30 12:04:39;;;;;;;14.57;13.07;;;8.00;1.00;;;;;;5098680;28;20973;-83
2022/11/30 12:07:25;;;;;;;13.60;12.30;;;8.10;99.90;;;;;;5097045;28;20466;-83
2022/11/30 12:10:03;;;;;;;12.73;11.53;;;8.20;99.90;;;;;;5104019;27;20467;-82
2022/11/30 12:12:49;;;;;;;14.50;13.00;;;8.20;99.90;;;;;;5103016;28;20539;-81
2022/11/30 12:15:28;;;;;;;13.83;11.67;;;8.10;99.90;;;;;;5101975;28;20464;-82
2022/11/30 12:18:06;;;;;;;12.70;11.50;;;8.10;99.90;;;;;;5102621;28;20478;-81
2022/11/30 12:20:52;;;;;;;14.07;12.57;;;8.10;99.90;;;;;;5100923;28;20452;-82
2022/11/30 12:23:36;;;;;;;14.20;12.70;;;8.00;99.90;;;;;;5095378;28;20451;-81
2022/11/30 12:26:12;;;;;;;14.57;11.80;;;8.00;99.90;;;;;;5102771;28;20559;-83
2022/11/30 12:28:47;;;;;;;12.90;11.60;;;8.00;99.90;;;;;;5105767;28;20970;-82
2022/11/30 12:31:16;;;;;;;13.83;12.37;;;8.00;99.90;;;;;;5097374;28;20473;-81
2022/11/30 12:34:02;;;;;;;12.60;11.27;;;8.00;1.00;;;;;;5097782;28;20454;-81
2022/11/30 12:36:40;;;;;;;13.17;11.80;;;8.00;99.90;;;;;;5104087;28;20819;-82
2022/11/30 12:39:09;;;;;;;12.30;11.20;;;8.00;99.90;;;;;;5108384;28;20501;-82
2022/11/30 12:41:42;;;;;;;12.30;11.10;;;8.00;99.90;;;;;;5106013;28;20463;-82
2022/11/30 12:44:29;;;;;;;12.90;11.50;;;8.00;99.90;;;;;;5100833;28;20489;-82
2022/11/30 12:47:06;;;;;;;13.60;12.20;;;8.00;99.90;;;;;;5103953;28;20464;-81
2022/11/30 12:49:52;;;;;;;12.73;11.43;;;8.00;99.90;;;;;;5100991;28;20452;-83
2022/11/30 12:52:35;;;;;;;11.47;10.40;;;8.10;99.90;;;;;;5099638;28;20876;-80
2022/11/30 12:55:17;;;;;;;13.30;10.40;;;8.10;99.90;;;;;;5101963;28;20545;-81
2022/11/30 12:57:51;;;;;;;10.63;9.53;;;8.20;1.00;;;;;;5102552;27;21050;-80
2022/11/30 13:00:22;;;;;;;11.80;10.60;;;8.20;29.70;;;;;;5103719;28;20508;-81
2022/11/30 13:03:11;;;;;;;11.27;10.23;;;8.20;1.00;;;;;;5102533;28;20459;-82
2022/11/30 13:05:45;;;;;;;10.70;9.70;;;8.10;99.90;;;;;;5094153;28;20454;-83
2022/11/30 13:08:22;;;;;;;12.27;10.80;;;8.20;1.00;;;;;;5098666;28;20611;-81